Time;durP1;ratioP1;P1;durP2;ratioP2;P2;SDS_P1;SDS_P2;PMS_P1;PMS_P2;Temp;Humidity;BMP_temperature;BMP_pressure;BME280_temperature;BME280_humidity;BME280_pressure;Samples;Min_cycle;Max_cycle;Signal;HPM_P1;HPM_P2
2022/05/25 03:23:21;;;;;;;9.08;4.83;;;;;;;9.37;62.56;99568.73;1666992;78;21155;-77
2022/05/25 03:41:31;;;;;;;7.33;5.50;;;;;;;10.19;60.40;99567.97;1714546;81;21659;-76
2022/05/25 03:43:58;;;;;;;12.15;6.15;;;;;;;10.38;60.00;99568.72;1726915;83;21102;-76
2022/05/25 03:46:24;;;;;;;13.90;6.05;;;;;;;10.51;59.61;99567.86;1727167;82;21003;-77
2022/05/25 03:48:51;;;;;;;15.10;8.10;;;;;;;10.64;59.47;99573.12;1726560;82;21122;-78
2022/05/25 03:51:18;;;;;;;15.78;7.75;;;;;;;10.75;57.88;99570.95;1726747;82;21078;-78
2022/05/25 03:53:45;;;;;;;11.73;6.35;;;;;;;10.92;58.24;99568.20;1726800;83;21062;-76
2022/05/25 03:56:11;;;;;;;9.30;5.08;;;;;;;11.06;57.55;99568.58;1726655;81;21145;-77
2022/05/25 03:58:38;;;;;;;13.25;4.80;;;;;;;11.21;57.07;99576.83;1726620;83;21521;-76
2022/05/25 04:01:04;;;;;;;13.95;4.50;;;;;;;11.36;56.96;99577.58;1726570;83;21848;-77
2022/05/25 04:03:31;;;;;;;9.68;4.60;;;;;;;11.52;56.79;99580.05;1726874;81;23098;-77
2022/05/25 04:05:58;;;;;;;6.10;4.08;;;;;;;11.70;54.57;99574.98;1726782;82;21513;-77
2022/05/25 04:08:24;;;;;;;9.63;4.30;;;;;;;11.88;54.17;99582.22;1726955;81;21061;-77
2022/05/25 04:10:51;;;;;;;11.55;4.20;;;;;;;12.04;53.25;99589.56;1726890;83;21671;-77
2022/05/25 04:13:20;;;;;;;7.33;4.25;;;;;;;12.18;53.21;99587.21;1726734;81;21243;-77
2022/05/25 04:15:47;;;;;;;9.63;4.20;;;;;;;12.33;52.29;99584.89;1726803;83;21578;-77
2022/05/25 04:18:13;;;;;;;8.08;4.62;;;;;;;12.48;52.35;99586.05;1726797;83;21118;-77
2022/05/25 04:20:40;;;;;;;12.33;5.17;;;;;;;12.59;51.13;99596.55;1726650;82;21003;-77
2022/05/25 04:23:11;;;;;;;12.28;5.58;;;;;;;12.74;49.76;99602.09;1726742;83;21603;-78
2022/05/25 04:25:39;;;;;;;11.78;4.92;;;;;;;12.88;49.06;99601.06;1726721;81;21147;-77
2022/05/25 04:28:06;;;;;;;7.85;4.75;;;;;;;13.03;49.09;99599.98;1727000;81;21498;-78
2022/05/25 04:30:33;;;;;;;12.65;4.95;;;;;;;13.14;48.72;99604.35;1726728;82;21636;-78
2022/05/25 04:33:01;;;;;;;13.78;4.97;;;;;;;13.27;48.59;99609.97;1726925;82;21110;-77
2022/05/25 04:35:28;;;;;;;8.50;4.10;;;;;;;13.39;48.93;99609.44;1726539;82;21620;-76
2022/05/25 04:37:56;;;;;;;11.60;3.55;;;;;;;13.53;48.07;99611.45;1726604;82;21102;-77
2022/05/25 04:40:35;;;;;;;7.60;3.25;;;;;;;13.66;47.54;99612.61;1726824;82;21122;-77
2022/05/25 04:43:06;;;;;;;8.08;3.00;;;;;;;13.78;45.01;99603.73;1724817;82;21597;-77
2022/05/25 04:45:33;;;;;;;6.85;2.55;;;;;;;13.91;44.86;99602.23;1723990;82;21640;-77
2022/05/25 04:48:01;;;;;;;5.35;2.70;;;;;;;14.04;42.98;99599.88;1723923;81;21611;-76
2022/05/25 04:50:32;;;;;;;3.15;2.85;;;;;;;14.16;42.62;99605.05;1724091;83;21796;-77
2022/05/25 04:52:59;;;;;;;4.90;2.60;;;;;;;14.25;42.70;99603.27;1723722;82;21103;-76
2022/05/25 04:58:21;;;;;;;8.15;2.47;;;;;;;14.48;41.37;99603.47;1724040;82;21109;-77
2022/05/25 05:00:48;;;;;;;2.70;2.47;;;;;;;14.63;41.13;99610.68;1723231;83;21529;-77
2022/05/25 05:03:15;;;;;;;7.67;2.37;;;;;;;14.73;40.75;99603.14;1724106;83;21905;-77
2022/05/25 05:05:42;;;;;;;2.50;2.30;;;;;;;14.84;40.78;99607.88;1724250;82;21027;-77
2022/05/25 05:08:09;;;;;;;6.60;2.47;;;;;;;14.96;40.25;99601.09;1701317;83;21073;-78
2022/05/25 05:10:36;;;;;;;3.45;2.52;;;;;;;15.08;39.15;99602.26;1724014;82;21635;-77
2022/05/25 05:13:07;;;;;;;3.20;2.08;;;;;;;15.18;39.84;99601.72;1723763;83;21532;-77
2022/05/25 05:15:37;;;;;;;3.65;2.27;;;;;;;15.29;39.28;99606.44;1723987;83;21155;-77
2022/05/25 05:18:04;;;;;;;5.15;2.50;;;;;;;15.40;40.10;99601.91;1724239;82;21070;-77
2022/05/25 05:20:33;;;;;;;4.05;2.40;;;;;;;15.50;38.65;99608.44;1721446;83;21391;-77
2022/05/25 05:23:00;;;;;;;5.62;2.20;;;;;;;15.60;38.67;99607.00;1724045;82;21015;-78
2022/05/25 05:25:26;;;;;;;3.15;2.60;;;;;;;15.70;39.00;99606.48;1724162;81;21053;-77
2022/05/25 05:27:53;;;;;;;4.28;1.95;;;;;;;15.80;39.03;99603.75;1723940;82;21497;-78
2022/05/25 05:30:21;;;;;;;9.65;2.40;;;;;;;15.91;38.93;99611.98;1724133;83;21075;-76
2022/05/25 05:32:48;;;;;;;3.58;2.00;;;;;;;16.02;38.39;99606.55;1723979;83;21719;-78
2022/05/25 05:35:15;;;;;;;2.60;2.00;;;;;;;16.13;38.25;99608.98;1723840;83;21125;-77
2022/05/25 05:37:50;;;;;;;4.65;2.05;;;;;;;16.24;38.23;99610.17;1723880;82;21662;-77
2022/05/25 05:40:17;;;;;;;;;;;;;;;16.38;38.54;99617.38;1726675;83;21145;-77
2022/05/25 05:42:44;;;;;;;6.47;2.12;;;;;;;16.49;38.47;99609.63;1721536;82;20149;-77
2022/05/25 05:45:19;;;;;;;3.33;2.25;;;;;;;16.61;38.70;99611.59;1722443;83;22060;-77
2022/05/25 05:47:50;;;;;;;14.75;2.30;;;;;;;16.71;37.25;99612.77;1721785;83;21677;-78
2022/05/25 05:50:17;;;;;;;2.92;2.08;;;;;;;16.84;36.90;99616.02;1722407;83;21143;-77
2022/05/25 05:52:45;;;;;;;2.98;2.12;;;;;;;16.96;37.05;99613.99;1722041;83;21847;-77
2022/05/25 05:55:11;;;;;;;4.53;2.25;;;;;;;17.07;36.07;99608.05;1722402;83;22095;-77
2022/05/25 05:57:39;;;;;;;5.85;1.95;;;;;;;17.18;36.25;99618.03;1701383;83;21029;-77
2022/05/25 06:00:07;;;;;;;6.22;2.20;;;;;;;17.26;35.82;99613.98;1714386;83;21494;-77
2022/05/25 06:02:36;;;;;;;3.33;2.00;;;;;;;17.35;34.95;99616.55;1754987;81;21095;-78
2022/05/25 06:05:03;;;;;;;5.40;2.17;;;;;;;17.40;34.65;99619.78;1724039;83;21137;-78
2022/05/25 06:07:29;;;;;;;3.85;2.00;;;;;;;17.49;34.66;99613.52;1757145;81;21981;-78
2022/05/25 06:09:57;;;;;;;7.97;2.05;;;;;;;17.58;34.46;99616.44;1755716;81;21099;-76
2022/05/25 06:12:24;;;;;;;2.83;1.70;;;;;;;17.69;34.64;99616.27;1725749;81;21115;-76
2022/05/25 06:14:51;;;;;;;5.15;1.85;;;;;;;17.80;34.13;99617.77;1755746;81;21075;-77
2022/05/25 06:20:04;;;;;;;5.90;2.40;;;;;;;17.97;34.28;99611.40;1755459;81;21037;-76
2022/05/25 06:22:32;;;;;;;2.17;1.87;;;;;;;18.09;34.08;99612.42;1755821;81;22108;-76
2022/05/25 06:24:59;;;;;;;2.52;1.98;;;;;;;18.18;33.61;99612.69;1755503;81;20965;-76
2022/05/25 06:27:25;;;;;;;3.67;2.00;;;;;;;18.29;33.78;99613.80;1755881;81;21028;-76
2022/05/25 06:29:52;;;;;;;5.87;2.00;;;;;;;18.41;33.39;99622.34;1732739;81;22056;-77
2022/05/25 06:32:22;;;;;;;6.90;2.15;;;;;;;18.50;32.91;99607.06;1728632;83;21462;-76
2022/05/25 06:34:50;;;;;;;4.90;2.30;;;;;;;18.59;32.61;99612.75;1733822;82;21091;-76
2022/05/25 06:37:21;;;;;;;6.45;1.92;;;;;;;18.67;33.23;99613.09;1697635;83;21005;-76
2022/05/25 06:39:47;;;;;;;2.77;2.10;;;;;;;18.74;32.03;99615.72;1733003;82;21179;-76
2022/05/25 06:42:14;;;;;;;2.40;1.60;;;;;;;18.80;32.78;99618.47;1728117;83;21128;-76
2022/05/25 06:44:44;;;;;;;1.72;1.50;;;;;;;18.87;30.95;99613.97;1724722;82;20986;-76
2022/05/25 06:47:16;;;;;;;3.72;1.82;;;;;;;18.91;30.62;99622.16;1731077;82;21575;-77
2022/05/25 06:49:43;;;;;;;1.98;1.72;;;;;;;18.95;29.82;99618.80;1725554;83;21624;-77
2022/05/25 06:52:12;;;;;;;4.65;1.70;;;;;;;18.98;29.88;99623.05;1731036;82;21130;-76
2022/05/25 06:54:40;;;;;;;3.60;2.08;;;;;;;19.02;31.08;99620.08;1725413;83;21161;-75
2022/05/25 06:57:08;;;;;;;2.58;1.90;;;;;;;19.12;31.56;99622.48;1725401;83;21121;-77
2022/05/25 06:59:36;;;;;;;3.37;1.67;;;;;;;19.26;31.46;99616.20;1730878;82;21619;-76
2022/05/25 07:02:03;;;;;;;4.12;1.72;;;;;;;19.38;31.20;99618.98;1725551;83;21077;-76
2022/05/25 07:04:31;;;;;;;2.25;1.72;;;;;;;19.50;31.50;99622.12;1725665;83;20991;-76
2022/05/25 07:07:02;;;;;;;5.22;2.10;;;;;;;19.65;32.67;99621.06;1731166;82;21103;-76
2022/05/25 07:09:30;;;;;;;4.40;1.45;;;;;;;19.84;30.94;99620.63;1724527;82;21054;-77
2022/05/25 07:11:58;;;;;;;4.70;1.55;;;;;;;19.94;30.46;99617.29;1730822;82;21622;-76
2022/05/25 07:14:27;;;;;;;6.05;1.60;;;;;;;20.01;30.27;99623.42;1725735;83;21120;-77
2022/05/25 07:16:55;;;;;;;4.50;1.50;;;;;;;20.12;30.21;99617.78;1730529;82;21099;-76
2022/05/25 07:19:21;;;;;;;2.65;1.20;;;;;;;20.23;30.55;99618.70;1725755;83;21154;-77
2022/05/25 07:21:48;;;;;;;1.60;1.30;;;;;;;20.32;28.30;99625.67;1730368;82;21609;-75
2022/05/25 07:24:15;;;;;;;4.25;1.12;;;;;;;20.27;28.08;99619.33;1725486;83;21073;-76
2022/05/25 07:26:41;;;;;;;2.20;1.02;;;;;;;20.23;28.20;99623.20;1731027;82;21609;-77
2022/05/25 07:29:08;;;;;;;1.82;1.22;;;;;;;20.20;27.69;99624.76;1725593;83;21080;-76
2022/05/25 07:31:47;;;;;;;1.72;1.05;;;;;;;20.17;28.08;99624.98;1730937;82;21437;-76
2022/05/25 07:34:18;;;;;;;3.00;1.30;;;;;;;20.13;27.23;99619.01;1725621;83;20998;-76
2022/05/25 07:36:49;;;;;;;1.00;1.00;;;;;;;20.14;28.53;99619.85;1731077;82;21107;-77
2022/05/25 07:39:16;;;;;;;3.37;1.10;;;;;;;20.22;27.33;99625.49;1725556;83;21085;-76
2022/05/25 07:41:46;;;;;;;3.05;1.45;;;;;;;20.24;28.28;99622.25;1731022;82;21037;-77
2022/05/25 07:44:17;;;;;;;3.08;1.62;;;;;;;20.27;27.96;99623.34;1725684;83;21314;-77
2022/05/25 07:46:44;;;;;;;4.17;1.30;;;;;;;20.22;27.58;99617.48;1730917;81;21032;-77
2022/05/25 07:49:10;;;;;;;2.92;1.32;;;;;;;20.19;28.55;99623.91;1725722;83;21124;-77
2022/05/25 07:51:38;;;;;;;3.30;1.20;;;;;;;20.21;28.33;99617.12;1730740;82;21338;-76
2022/05/25 07:54:05;;;;;;;6.55;1.32;;;;;;;20.31;28.40;99619.49;1725688;83;21508;-77
2022/05/25 07:56:35;;;;;;;3.85;0.93;;;;;;;20.45;29.04;99621.63;1730848;82;21151;-77
2022/05/25 07:59:07;;;;;;;2.35;1.55;;;;;;;20.61;27.60;99610.17;1725590;83;21093;-75
2022/05/25 08:07:16;;;;;;;3.42;1.12;;;;;;;20.99;27.67;99621.63;1731274;82;21060;-75
2022/05/25 08:09:44;;;;;;;2.12;1.57;;;;;;;21.09;27.13;99614.61;1725463;83;21727;-75
2022/05/25 08:12:12;;;;;;;3.75;1.55;;;;;;;21.11;27.14;99620.19;1730861;82;21099;-80
2022/05/25 08:14:39;;;;;;;5.30;1.40;;;;;;;21.18;27.55;99618.39;1725542;83;21006;-80
2022/05/25 08:17:09;;;;;;;6.25;1.32;;;;;;;21.21;27.58;99616.33;1731056;82;21084;-78
2022/05/25 08:19:35;;;;;;;3.12;1.22;;;;;;;21.28;27.96;99624.73;1725776;83;21046;-79
2022/05/25 08:22:02;;;;;;;3.12;1.57;;;;;;;21.32;27.33;99625.72;1731054;82;21102;-80
2022/05/25 08:24:30;;;;;;;3.52;1.37;;;;;;;21.26;26.94;99620.83;1725531;83;21100;-80
2022/05/25 08:26:56;;;;;;;1.50;1.17;;;;;;;21.22;26.89;99620.72;1695054;84;21086;-78
2022/05/25 08:29:25;;;;;;;4.00;1.52;;;;;;;21.19;27.51;99620.95;1725772;83;21061;-81
2022/05/25 08:31:55;;;;;;;5.70;1.60;;;;;;;21.27;28.05;99625.72;1730900;82;21503;-80
2022/05/25 08:34:23;;;;;;;4.40;1.07;;;;;;;21.33;27.60;99630.58;1725751;83;21162;-80
2022/05/25 08:36:52;;;;;;;5.97;1.37;;;;;;;21.36;27.96;99624.99;1730929;82;21111;-80
2022/05/25 08:42:17;;;;;;;5.72;1.50;;;;;;;21.47;27.36;99615.67;1770145;78;22826;-78
2022/05/25 08:44:45;;;;;;;1.37;1.27;;;;;;;21.51;27.89;99617.12;1726114;83;21071;-79
2022/05/25 08:47:12;;;;;;;1.45;1.27;;;;;;;21.63;28.19;99611.29;1725994;83;22415;-80
2022/05/25 08:49:43;;;;;;;2.95;1.00;;;;;;;21.78;28.80;99611.05;1743166;81;21062;-78
2022/05/25 08:52:32;;;;;;;2.47;1.40;;;;;;;21.95;27.58;99612.37;1755287;81;21010;-78
2022/05/25 08:54:59;;;;;;;5.72;3.47;;;;;;;22.02;26.68;99606.88;1754452;81;21075;-78
2022/05/25 08:57:34;;;;;;;3.92;1.30;;;;;;;22.12;27.27;99603.81;1754837;81;21544;-78
2022/05/25 09:00:09;;;;;;;2.77;1.25;;;;;;;22.18;27.10;99604.66;1754232;81;21807;-77
2022/05/25 09:03:05;;;;;;;3.45;1.17;;;;;;;22.23;27.39;99614.52;1754933;81;20986;-79
2022/05/25 09:05:49;;;;;;;6.80;1.60;;;;;;;22.23;26.41;99602.46;1754137;81;21619;-79
2022/05/25 09:08:51;;;;;;;2.15;1.15;;;;;;;22.30;27.06;99604.67;1753563;81;21124;-79
2022/05/25 09:11:24;;;;;;;1.22;1.07;;;;;;;22.40;27.68;99601.59;1754419;81;22096;-80
2022/05/25 09:14:04;;;;;;;5.92;1.42;;;;;;;22.52;27.06;99603.25;1754663;81;21135;-80
2022/05/25 09:16:32;;;;;;;5.28;1.30;;;;;;;22.59;25.83;99595.08;1732439;81;21487;-80
2022/05/25 09:19:24;;;;;;;2.47;1.50;;;;;;;22.54;25.43;99593.24;1754533;81;21120;-80
2022/05/25 09:21:58;;;;;;;9.20;1.55;;;;;;;22.38;25.84;99592.84;1750317;81;21131;-82
2022/05/25 09:24:26;;;;;;;6.95;1.30;;;;;;;22.24;26.13;99584.07;1754683;81;21068;-82
2022/05/25 09:26:52;;;;;;;2.90;1.30;;;;;;;22.27;27.19;99590.99;1754136;81;21504;-80
2022/05/25 09:29:20;;;;;;;1.92;1.65;;;;;;;22.37;25.85;99587.10;1754576;81;21014;-81
2022/05/25 09:31:56;;;;;;;8.48;1.30;;;;;;;22.41;25.62;99579.19;1754362;81;21077;-81
2022/05/25 09:34:54;;;;;;;1.10;1.00;;;;;;;22.38;25.59;99591.50;1754441;81;21060;-82
2022/05/25 09:37:56;;;;;;;1.40;1.30;;;;;;;22.36;25.70;99575.54;1754358;81;21524;-79
2022/05/25 09:40:35;;;;;;;3.45;1.47;;;;;;;22.47;26.04;99580.00;1753719;81;21253;-79
2022/05/25 09:43:06;;;;;;;2.25;1.00;;;;;;;22.57;26.30;99566.67;1719631;82;21049;-79
2022/05/25 09:45:42;;;;;;;1.30;1.20;;;;;;;22.81;26.83;99565.08;1713617;82;21626;-80
2022/05/25 09:48:26;;;;;;;4.53;1.87;;;;;;;23.07;26.49;99563.40;1719848;82;22306;-80
2022/05/25 09:51:01;;;;;;;5.28;1.32;;;;;;;23.32;26.65;99565.65;1749264;81;21560;-79
2022/05/25 09:53:36;;;;;;;1.32;1.22;;;;;;;23.61;26.24;99571.64;1745975;81;21140;-80
2022/05/25 09:56:20;;;;;;;5.17;1.27;;;;;;;23.79;24.78;99564.27;1748849;82;20993;-78
2022/05/25 09:58:51;;;;;;;3.70;1.47;;;;;;;23.86;24.51;99569.50;1748866;82;21144;-77
2022/05/25 10:01:34;;;;;;;10.00;1.37;;;;;;;23.85;24.70;99565.10;1748858;82;21022;-79
2022/05/25 10:04:01;;;;;;;1.95;1.30;;;;;;;23.82;25.03;99568.06;1748405;82;21659;-81
2022/05/25 10:06:35;;;;;;;5.62;1.20;;;;;;;23.76;23.52;99560.03;1748545;82;21154;-80
2022/05/25 10:09:28;;;;;;;3.95;1.10;;;;;;;23.61;24.46;99566.27;1748629;82;21045;-80
2022/05/25 10:12:01;;;;;;;4.22;1.50;;;;;;;23.50;24.16;99569.91;1748553;82;21053;-79
2022/05/25 10:14:35;;;;;;;2.07;1.13;;;;;;;23.33;24.69;99576.76;1712902;82;21107;-79
2022/05/25 10:17:14;;;;;;;2.12;1.02;;;;;;;23.23;24.71;99567.78;1748158;82;21049;-80
2022/05/25 10:19:53;;;;;;;1.25;0.90;;;;;;;23.19;23.65;99560.48;1748258;82;21177;-80
2022/05/25 10:22:41;;;;;;;1.40;1.30;;;;;;;23.07;23.62;99566.08;1748508;82;21112;-79
2022/05/25 10:25:36;;;;;;;1.05;0.95;;;;;;;22.96;24.06;99565.61;1748240;82;21551;-79
2022/05/25 10:28:06;;;;;;;3.12;1.05;;;;;;;22.88;24.27;99564.94;1748488;82;21045;-79
2022/05/25 10:36:46;;;;;;;2.37;1.42;;;;;;;23.16;24.73;99549.17;1748798;82;21111;-80
2022/05/25 10:39:27;;;;;;;1.55;1.45;;;;;;;23.43;24.53;99541.03;1748729;82;21049;-78
2022/05/25 10:42:17;;;;;;;1.45;1.12;;;;;;;23.74;25.32;99534.64;1741894;82;21347;-78
2022/05/25 10:45:09;;;;;;;3.75;1.30;;;;;;;24.06;25.23;99533.61;1741377;82;21104;-78
2022/05/25 10:47:57;;;;;;;2.08;1.00;;;;;;;24.33;23.77;99533.42;1740646;82;21140;-77
2022/05/25 10:50:47;;;;;;;1.32;1.05;;;;;;;24.35;23.29;99527.41;1740268;82;21690;-78
2022/05/25 10:57:37;;;;;;;2.15;1.10;;;;;;;24.11;22.90;99531.35;1741090;82;21513;-78
2022/05/25 11:00:19;;;;;;;;;;;;;;;24.04;23.01;99524.84;1743264;82;20978;-78
2022/05/25 11:03:16;;;;;;;3.27;1.15;;;;;;;23.96;22.53;99534.09;1740766;82;21167;-80
2022/05/25 11:06:02;;;;;;;2.77;2.58;;;;;;;23.67;22.28;99532.62;1740517;82;21074;-79
2022/05/25 11:09:07;;;;;;;2.75;1.22;;;;;;;23.57;23.21;99532.62;1740795;82;21883;-77
2022/05/25 11:11:57;;;;;;;2.08;1.00;;;;;;;23.62;23.38;99529.50;1740983;82;21081;-79
2022/05/25 11:14:54;;;;;;;1.30;1.20;;;;;;;23.63;22.60;99532.56;1741040;82;21006;-79
2022/05/25 11:17:58;;;;;;;6.65;1.10;;;;;;;23.50;23.20;99527.41;1740842;82;21168;-80
2022/05/25 11:20:42;;;;;;;1.80;1.40;;;;;;;23.61;23.24;99521.95;1740589;82;21093;-79
2022/05/25 11:23:29;;;;;;;1.57;1.10;;;;;;;23.90;23.85;99529.27;1740824;82;21649;-77
2022/05/25 11:26:30;;;;;;;1.02;1.02;;;;;;;24.18;23.14;99514.67;1741137;82;21967;-78
2022/05/25 11:29:29;;;;;;;2.00;0.98;;;;;;;24.36;23.37;99519.70;1740590;82;20997;-78
2022/05/25 11:32:25;;;;;;;2.25;1.10;;;;;;;24.36;22.81;99523.73;1740801;82;21113;-79
2022/05/25 11:35:12;;;;;;;1.47;1.10;;;;;;;24.29;22.51;99518.55;1740640;82;21207;-77
2022/05/25 11:37:56;;;;;;;3.27;1.10;;;;;;;24.38;22.87;99511.50;1740845;82;21065;-80
2022/05/25 11:40:50;;;;;;;4.03;1.00;;;;;;;24.46;22.78;99512.95;1740445;82;21058;-80
2022/05/25 11:43:23;;;;;;;2.77;1.20;;;;;;;24.55;22.38;99511.30;1740862;82;21006;-79
2022/05/25 11:46:10;;;;;;;1.87;1.45;;;;;;;24.47;22.47;99519.53;1740456;82;22262;-80
2022/05/25 11:48:56;;;;;;;6.67;1.20;;;;;;;24.36;22.46;99510.30;1740858;82;21109;-79
2022/05/25 11:51:37;;;;;;;1.00;1.00;;;;;;;24.39;22.61;99515.36;1741062;82;21049;-77
2022/05/25 11:54:17;;;;;;;3.62;1.02;;;;;;;24.47;22.04;99514.16;1740698;82;21077;-79
2022/05/25 11:56:51;;;;;;;2.17;1.30;;;;;;;24.50;22.25;99508.16;1740642;82;21047;-79
2022/05/25 12:00:07;;;;;;;2.13;1.10;;;;;;;24.54;22.51;99509.56;1740709;82;21137;-79
2022/05/25 12:03:21;;;;;;;4.28;1.27;;;;;;;24.37;21.65;99503.91;1741080;82;21488;-77
2022/05/25 12:06:22;;;;;;;4.20;1.32;;;;;;;24.21;22.13;99499.58;1740745;82;21544;-80
2022/05/25 12:09:12;;;;;;;2.12;1.15;;;;;;;24.18;22.33;99491.83;1740822;82;21013;-79
2022/05/25 12:11:50;;;;;;;4.12;1.15;;;;;;;24.02;21.99;99490.52;1685446;82;21002;-79
2022/05/25 12:14:25;;;;;;;1.77;1.00;;;;;;;23.90;21.49;99488.95;1740870;82;21148;-81
2022/05/25 12:16:54;;;;;;;1.10;1.00;;;;;;;23.88;21.91;99479.69;1740561;82;21006;-80
2022/05/25 12:19:27;;;;;;;3.98;1.30;;;;;;;24.02;22.85;99479.77;1740619;82;21109;-80
2022/05/25 12:22:04;;;;;;;4.97;1.10;;;;;;;24.19;22.21;99477.38;1741560;82;21076;-80
2022/05/25 12:24:40;;;;;;;1.30;1.20;;;;;;;24.30;22.49;99478.58;1740693;82;21022;-80
2022/05/25 12:27:20;;;;;;;1.62;1.00;;;;;;;24.46;21.91;99473.48;1740381;82;21136;-81
2022/05/25 12:29:54;;;;;;;1.10;1.00;;;;;;;24.55;21.97;99470.95;1740635;82;20986;-81
2022/05/25 12:32:21;;;;;;;3.65;1.20;;;;;;;24.66;22.28;99481.53;1740529;82;21065;-80
2022/05/25 12:34:52;;;;;;;1.35;0.93;;;;;;;24.63;21.96;99474.62;1740035;82;21521;-82
2022/05/25 12:37:31;;;;;;;1.87;1.02;;;;;;;24.55;21.35;99471.80;1740309;82;21626;-81
2022/05/25 12:40:03;;;;;;;1.20;1.05;;;;;;;24.44;21.81;99464.72;1740477;82;21152;-81
2022/05/25 12:42:34;;;;;;;2.37;1.52;;;;;;;24.39;22.17;99458.89;1739156;82;21069;-81
2022/05/25 12:50:55;;;;;;;2.35;1.00;;;;;;;24.30;21.59;99470.02;1704485;84;21040;-79
2022/05/25 12:53:42;;;;;;;8.25;1.75;;;;;;;24.01;21.59;99466.50;1704531;84;21132;-81
2022/05/25 12:56:21;;;;;;;1.00;0.82;;;;;;;23.77;21.62;99465.50;1704263;84;21004;-80
2022/05/25 12:58:56;;;;;;;11.12;7.50;;;;;;;23.51;21.95;99460.65;1705135;83;21099;-80
2022/05/25 13:01:31;;;;;;;7.40;3.40;;;;;;;23.45;21.94;99461.19;1704377;84;21004;-79
2022/05/25 13:04:15;;;;;;;12.55;5.22;;;;;;;23.42;22.68;99472.20;1703795;84;21090;-81
2022/05/25 13:06:50;;;;;;;14.47;4.97;;;;;;;23.36;22.85;99455.65;1705118;84;21638;-81
2022/05/25 13:09:41;;;;;;;5.53;2.50;;;;;;;23.37;23.00;99453.84;1704336;84;21019;-81
2022/05/25 13:12:43;;;;;;;1.27;1.17;;;;;;;23.37;22.74;99447.96;1704263;83;22022;-81
2022/05/25 13:15:23;;;;;;;2.33;1.32;;;;;;;23.43;22.64;99451.09;1704230;84;21087;-80
2022/05/25 13:17:51;;;;;;;4.62;1.60;;;;;;;23.56;22.32;99439.09;1704584;84;21075;-82
2022/05/25 13:20:46;;;;;;;4.10;1.00;;;;;;;23.70;21.99;99439.69;1707584;83;21224;-82
2022/05/25 13:23:01;;;;;;;2.70;1.50;;;;;;;23.70;21.97;99441.90;1701983;84;21075;-81
2022/05/25 13:25:50;;;;;;;5.35;1.95;;;;;;;23.72;22.09;99439.91;1703891;84;21538;-79
2022/05/25 13:28:51;;;;;;;6.03;2.77;;;;;;;23.79;21.86;99444.70;1704502;83;21626;-82
2022/05/25 13:31:51;;;;;;;4.08;1.00;;;;;;;23.72;21.54;99438.57;1704341;84;21130;-82
2022/05/25 13:34:18;;;;;;;2.85;1.00;;;;;;;23.65;21.55;99441.44;1704460;83;21138;-81
2022/05/25 13:36:55;;;;;;;2.80;1.50;;;;;;;23.65;21.90;99438.75;1704337;84;21920;-81
2022/05/25 13:39:23;;;;;;;2.95;1.00;;;;;;;23.71;22.33;99430.65;1704470;83;21013;-82
2022/05/25 13:41:58;;;;;;;10.78;3.67;;;;;;;23.84;22.36;99431.73;1704486;83;21123;-81
2022/05/25 13:44:26;;;;;;;;;;;;;;;23.97;22.20;99439.03;1707206;84;20984;-82
2022/05/25 13:46:55;;;;;;;6.55;1.90;;;;;;;23.97;21.68;99440.88;1684451;83;21101;-80
2022/05/25 13:49:38;;;;;;;1.30;1.20;;;;;;;23.92;21.71;99439.95;1704878;84;22980;-81
2022/05/25 13:52:23;;;;;;;1.40;0.93;;;;;;;23.85;21.11;99430.25;1704688;83;21522;-81
2022/05/25 13:55:04;;;;;;;5.60;1.00;;;;;;;23.82;21.25;99428.34;1704379;84;21004;-81
2022/05/25 13:57:35;;;;;;;1.40;1.30;;;;;;;23.87;21.67;99422.92;1707979;83;22047;-81
2022/05/25 14:00:28;;;;;;;1.85;1.30;;;;;;;23.84;20.96;99425.89;1704654;84;21111;-81
2022/05/25 14:03:06;;;;;;;2.87;1.40;;;;;;;23.85;21.47;99418.67;1704302;83;21511;-80
2022/05/25 14:05:37;;;;;;;1.98;1.50;;;;;;;23.85;21.09;99429.42;1699699;83;21096;-80
2022/05/25 14:08:23;;;;;;;4.33;1.27;;;;;;;23.79;21.45;99423.22;1670606;85;21007;-81
2022/05/25 14:10:59;;;;;;;2.50;1.10;;;;;;;23.82;21.31;99424.31;1666043;86;21578;-80
2022/05/25 14:13:36;;;;;;;3.72;1.40;;;;;;;23.80;21.81;99424.92;1636768;86;21114;-81
2022/05/25 14:16:19;;;;;;;3.08;1.60;;;;;;;23.82;21.71;99422.97;1665644;86;21150;-80
2022/05/25 14:18:56;;;;;;;1.65;1.00;;;;;;;23.81;21.79;99422.61;1665909;86;21174;-80
2022/05/25 14:21:49;;;;;;;2.15;1.10;;;;;;;23.85;21.95;99414.64;1665777;86;21082;-81
2022/05/25 14:24:41;;;;;;;1.27;0.90;;;;;;;23.90;21.78;99421.78;1665726;86;21628;-81
2022/05/25 14:27:23;;;;;;;1.05;0.90;;;;;;;23.96;21.74;99417.20;1665666;86;21372;-80
2022/05/25 14:29:49;;;;;;;2.17;1.32;;;;;;;24.02;22.16;99411.23;1665634;86;21633;-80
2022/05/25 14:32:29;;;;;;;2.52;1.15;;;;;;;24.10;21.64;99411.38;1665800;86;21089;-81
2022/05/25 14:35:03;;;;;;;4.95;1.20;;;;;;;24.19;22.28;99414.20;1665759;86;21411;-80
2022/05/25 14:37:33;;;;;;;6.37;1.10;;;;;;;24.25;21.66;99407.75;1665851;86;21091;-81
2022/05/25 14:40:04;;;;;;;5.72;1.10;;;;;;;24.20;21.60;99408.69;1676017;84;21552;-81
2022/05/25 14:42:31;;;;;;;1.20;1.07;;;;;;;24.11;21.67;99402.33;1676166;85;21081;-80
2022/05/25 14:45:07;;;;;;;2.12;1.25;;;;;;;24.02;21.85;99399.14;1649031;84;21093;-80
2022/05/25 14:47:49;;;;;;;4.15;2.05;;;;;;;24.06;21.96;99397.88;1676501;84;21148;-80
2022/05/25 14:50:36;;;;;;;3.35;1.50;;;;;;;24.14;22.43;99394.49;1718464;83;20979;-80
2022/05/25 14:53:17;;;;;;;5.50;1.02;;;;;;;24.19;22.66;99393.56;1718379;83;21675;-80
2022/05/25 14:55:52;;;;;;;1.60;1.20;;;;;;;24.26;23.09;99396.53;1731879;82;21126;-80
2022/05/25 14:58:24;;;;;;;3.47;1.00;;;;;;;24.26;22.07;99386.61;1741657;82;21043;-80
2022/05/25 15:01:08;;;;;;;3.27;1.40;;;;;;;24.29;22.11;99393.52;1742106;82;21696;-80
2022/05/25 15:03:50;;;;;;;4.28;1.22;;;;;;;24.33;22.66;99388.73;1742018;82;21291;-81
2022/05/25 15:06:19;;;;;;;2.92;1.27;;;;;;;24.36;22.50;99378.53;1742337;82;21119;-81
2022/05/25 15:08:59;;;;;;;3.40;1.80;;;;;;;24.40;22.23;99383.95;1741790;82;21059;-81
2022/05/25 15:11:36;;;;;;;1.98;1.45;;;;;;;24.42;22.54;99375.23;1742148;82;21079;-80
2022/05/25 15:20:16;;;;;;;4.28;1.10;;;;;;;24.45;23.03;99374.11;1741835;82;21134;-80
2022/05/25 15:23:00;;;;;;;1.35;1.10;;;;;;;24.43;23.04;99370.23;1742121;82;21091;-81
2022/05/25 15:25:45;;;;;;;1.50;1.10;;;;;;;24.42;23.10;99371.71;1741856;82;21051;-81
2022/05/25 15:28:23;;;;;;;3.37;1.40;;;;;;;24.39;23.56;99364.77;1729567;82;21364;-81
2022/05/25 15:31:02;;;;;;;3.70;0.98;;;;;;;24.35;23.46;99365.23;1741806;82;21091;-81
2022/05/25 15:33:32;;;;;;;6.55;1.00;;;;;;;24.32;23.53;99361.48;1741788;82;22393;-80
2022/05/25 15:36:11;;;;;;;4.97;1.40;;;;;;;24.26;23.59;99357.55;1741758;82;21736;-80
2022/05/25 15:38:39;;;;;;;3.25;1.50;;;;;;;24.22;23.58;99354.78;1742277;82;21578;-80
2022/05/25 15:41:08;;;;;;;3.27;1.20;;;;;;;24.16;23.53;99354.00;1742071;82;21543;-81
2022/05/25 15:43:36;;;;;;;3.50;1.25;;;;;;;24.06;23.59;99357.56;1745746;81;21153;-80
2022/05/25 15:46:09;;;;;;;3.00;1.00;;;;;;;24.00;23.84;99360.81;1747782;82;21929;-81
2022/05/25 15:48:39;;;;;;;;;;;;;;;23.95;23.82;99359.05;1750267;81;21079;-80
2022/05/25 15:51:14;;;;;;;2.12;1.10;;;;;;;23.90;23.87;99358.64;1747633;82;20257;-81
2022/05/25 15:53:41;;;;;;;6.75;1.50;;;;;;;23.85;24.13;99352.84;1747690;82;21565;-81
2022/05/25 15:56:09;;;;;;;5.70;1.07;;;;;;;23.83;24.45;99352.14;1747853;82;21518;-81
2022/05/25 15:58:37;;;;;;;7.30;1.50;;;;;;;23.80;24.45;99357.77;1747937;82;21154;-81
2022/05/25 16:01:06;;;;;;;6.08;1.82;;;;;;;23.78;24.41;99349.00;1747700;82;21106;-80
2022/05/25 16:03:41;;;;;;;3.80;1.20;;;;;;;23.71;24.11;99342.84;1747922;82;21602;-81
2022/05/25 16:06:10;;;;;;;6.53;1.30;;;;;;;23.65;23.97;99347.43;1747385;82;21004;-81
2022/05/25 16:11:22;;;;;;;2.77;1.10;;;;;;;23.55;24.50;99349.27;1748196;82;21573;-81
2022/05/25 16:13:49;;;;;;;2.20;1.20;;;;;;;23.51;24.71;99341.16;1747553;82;21004;-81
2022/05/25 16:16:15;;;;;;;2.40;1.25;;;;;;;23.46;24.77;99336.70;1748193;82;21078;-81
2022/05/25 16:18:43;;;;;;;8.33;1.50;;;;;;;23.41;24.93;99333.59;1747763;82;21049;-85
2022/05/25 16:21:13;;;;;;;2.40;1.22;;;;;;;23.35;24.80;99325.10;1747688;82;20991;-86
2022/05/25 16:23:40;;;;;;;2.12;1.42;;;;;;;23.30;24.93;99331.39;1747923;82;21511;-85
2022/05/25 16:26:07;;;;;;;1.95;1.47;;;;;;;23.26;25.28;99333.14;1747501;82;21052;-85